Weather at Bar Yehuda Airfield

Public forecast

Using degrees Celsius for public forecast. Weather courtesy of forecast.io.

Closest aviation weather report (METAR) to Bar Yehuda Airfield

Closest report is Queen Alia International Airport, 39.0 nm (72.2 km) NE. Retrieved 2021/11/29 04:00 UTC (58 minutes ago):

OJAI 290400Z 01006KT 6000 NSC 10/01 Q1024 NOSIG

Closest aviation forecast (TAF) to Bar Yehuda Airfield

Closest forecast is Queen Alia International Airport, 39.0 nm (72.2 km) NE. Retrieved 2021-11-29 00:15 UTC (5 hours ago):

TAF OJAI 282300Z 2900/3006 25006KT 5000 HZ NSC PROB30 2903/2906 VRB02KT 3000 HZ BECMG 2906/2908 14008KT